sensor_id;sensor_type;location;lat;lon;timestamp;P1;durP1;ratioP1;P2;durP2;ratioP2
55710;SDS011;41612;51.994;5.880;2024-02-26T00:02:21;12.10;;;7.28;;
55710;SDS011;41612;51.994;5.880;2024-02-26T00:04:47;8.98;;;6.55;;
55710;SDS011;41612;51.994;5.880;2024-02-26T00:07:15;9.27;;;6.53;;
55710;SDS011;41612;51.994;5.880;2024-02-26T00:09:44;5.90;;;3.83;;
55710;SDS011;41612;51.994;5.880;2024-02-26T00:12:13;9.30;;;6.43;;
55710;SDS011;41612;51.994;5.880;2024-02-26T00:14:42;10.00;;;6.00;;
55710;SDS011;41612;51.994;5.880;2024-02-26T00:17:10;10.60;;;6.05;;
55710;SDS011;41612;51.994;5.880;2024-02-26T00:19:35;9.32;;;6.20;;
55710;SDS011;41612;51.994;5.880;2024-02-26T00:22:01;8.50;;;5.50;;
55710;SDS011;41612;51.994;5.880;2024-02-26T00:24:30;10.55;;;6.53;;
55710;SDS011;41612;51.994;5.880;2024-02-26T00:26:56;9.43;;;6.35;;
55710;SDS011;41612;51.994;5.880;2024-02-26T00:29:24;9.48;;;6.32;;
55710;SDS011;41612;51.994;5.880;2024-02-26T00:32:02;8.70;;;5.60;;
55710;SDS011;41612;51.994;5.880;2024-02-26T00:34:28;8.25;;;5.28;;
55710;SDS011;41612;51.994;5.880;2024-02-26T00:36:55;9.68;;;6.30;;
55710;SDS011;41612;51.994;5.880;2024-02-26T00:39:26;9.52;;;6.15;;
55710;SDS011;41612;51.994;5.880;2024-02-26T00:41:56;10.15;;;7.30;;
55710;SDS011;41612;51.994;5.880;2024-02-26T00:44:25;13.25;;;6.32;;
55710;SDS011;41612;51.994;5.880;2024-02-26T00:46:51;10.88;;;6.25;;
55710;SDS011;41612;51.994;5.880;2024-02-26T00:49:19;10.27;;;6.45;;
55710;SDS011;41612;51.994;5.880;2024-02-26T00:51:48;7.45;;;5.22;;
55710;SDS011;41612;51.994;5.880;2024-02-26T00:54:16;8.23;;;5.72;;
55710;SDS011;41612;51.994;5.880;2024-02-26T00:56:51;8.43;;;5.88;;
55710;SDS011;41612;51.994;5.880;2024-02-26T00:59:17;8.75;;;6.05;;
55710;SDS011;41612;51.994;5.880;2024-02-26T01:01:42;8.60;;;5.53;;
55710;SDS011;41612;51.994;5.880;2024-02-26T01:04:21;11.45;;;5.97;;
55710;SDS011;41612;51.994;5.880;2024-02-26T01:06:50;9.65;;;5.90;;
55710;SDS011;41612;51.994;5.880;2024-02-26T01:09:16;7.35;;;5.47;;
55710;SDS011;41612;51.994;5.880;2024-02-26T01:11:43;7.13;;;5.65;;
55710;SDS011;41612;51.994;5.880;2024-02-26T01:14:15;7.80;;;5.97;;
55710;SDS011;41612;51.994;5.880;2024-02-26T01:16:40;8.38;;;5.50;;
55710;SDS011;41612;51.994;5.880;2024-02-26T01:19:06;8.27;;;6.07;;
55710;SDS011;41612;51.994;5.880;2024-02-26T01:21:32;8.98;;;6.40;;
55710;SDS011;41612;51.994;5.880;2024-02-26T01:24:01;9.48;;;6.38;;
55710;SDS011;41612;51.994;5.880;2024-02-26T01:26:32;8.57;;;5.40;;
55710;SDS011;41612;51.994;5.880;2024-02-26T01:29:02;9.85;;;6.43;;
55710;SDS011;41612;51.994;5.880;2024-02-26T01:31:31;7.80;;;5.65;;
55710;SDS011;41612;51.994;5.880;2024-02-26T01:34:00;8.95;;;6.05;;
55710;SDS011;41612;51.994;5.880;2024-02-26T01:36:29;8.27;;;5.70;;
55710;SDS011;41612;51.994;5.880;2024-02-26T01:38:57;8.20;;;5.70;;
55710;SDS011;41612;51.994;5.880;2024-02-26T01:41:28;8.95;;;6.00;;
55710;SDS011;41612;51.994;5.880;2024-02-26T01:43:56;7.63;;;5.57;;
55710;SDS011;41612;51.994;5.880;2024-02-26T01:46:22;8.18;;;5.35;;
55710;SDS011;41612;51.994;5.880;2024-02-26T01:48:48;7.05;;;5.40;;
55710;SDS011;41612;51.994;5.880;2024-02-26T01:51:16;7.88;;;4.97;;
55710;SDS011;41612;51.994;5.880;2024-02-26T01:53:50;8.93;;;5.85;;
55710;SDS011;41612;51.994;5.880;2024-02-26T01:56:16;7.00;;;5.50;;
55710;SDS011;41612;51.994;5.880;2024-02-26T01:58:43;9.30;;;6.68;;
55710;SDS011;41612;51.994;5.880;2024-02-26T02:01:10;11.48;;;7.20;;
55710;SDS011;41612;51.994;5.880;2024-02-26T02:03:42;9.80;;;5.47;;
55710;SDS011;41612;51.994;5.880;2024-02-26T02:06:14;7.72;;;5.25;;
55710;SDS011;41612;51.994;5.880;2024-02-26T02:08:43;7.40;;;5.40;;
55710;SDS011;41612;51.994;5.880;2024-02-26T02:11:08;7.88;;;5.45;;
55710;SDS011;41612;51.994;5.880;2024-02-26T02:13:37;7.95;;;5.75;;
55710;SDS011;41612;51.994;5.880;2024-02-26T02:16:03;7.18;;;5.53;;
55710;SDS011;41612;51.994;5.880;2024-02-26T02:18:32;7.38;;;5.72;;
55710;SDS011;41612;51.994;5.880;2024-02-26T02:21:01;7.60;;;5.72;;
55710;SDS011;41612;51.994;5.880;2024-02-26T02:23:29;7.32;;;5.15;;
55710;SDS011;41612;51.994;5.880;2024-02-26T02:25:56;7.18;;;5.60;;
55710;SDS011;41612;51.994;5.880;2024-02-26T02:28:28;8.82;;;6.07;;
55710;SDS011;41612;51.994;5.880;2024-02-26T02:30:54;6.20;;;5.10;;
55710;SDS011;41612;51.994;5.880;2024-02-26T02:33:23;6.22;;;4.70;;
55710;SDS011;41612;51.994;5.880;2024-02-26T02:35:50;7.88;;;5.57;;
55710;SDS011;41612;51.994;5.880;2024-02-26T02:38:19;6.50;;;4.95;;
55710;SDS011;41612;51.994;5.880;2024-02-26T02:41:00;7.18;;;5.40;;
55710;SDS011;41612;51.994;5.880;2024-02-26T02:43:28;9.43;;;5.63;;
55710;SDS011;41612;51.994;5.880;2024-02-26T02:45:54;9.68;;;6.07;;
55710;SDS011;41612;51.994;5.880;2024-02-26T02:48:20;7.80;;;6.53;;
55710;SDS011;41612;51.994;5.880;2024-02-26T02:50:46;7.00;;;5.00;;
55710;SDS011;41612;51.994;5.880;2024-02-26T02:53:18;7.72;;;5.32;;
55710;SDS011;41612;51.994;5.880;2024-02-26T02:55:52;7.75;;;5.22;;
55710;SDS011;41612;51.994;5.880;2024-02-26T02:58:17;7.40;;;6.50;;
55710;SDS011;41612;51.994;5.880;2024-02-26T03:00:43;7.05;;;5.03;;
55710;SDS011;41612;51.994;5.880;2024-02-26T03:03:09;11.15;;;5.10;;
55710;SDS011;41612;51.994;5.880;2024-02-26T03:05:38;6.90;;;5.43;;
55710;SDS011;41612;51.994;5.880;2024-02-26T03:08:06;8.02;;;4.65;;
55710;SDS011;41612;51.994;5.880;2024-02-26T03:10:34;6.55;;;4.65;;
55710;SDS011;41612;51.994;5.880;2024-02-26T03:13:04;6.43;;;4.88;;
55710;SDS011;41612;51.994;5.880;2024-02-26T03:15:33;5.82;;;4.32;;
55710;SDS011;41612;51.994;5.880;2024-02-26T03:18:07;6.15;;;4.32;;
55710;SDS011;41612;51.994;5.880;2024-02-26T03:20:36;9.00;;;5.13;;
55710;SDS011;41612;51.994;5.880;2024-02-26T03:23:04;6.88;;;4.95;;
55710;SDS011;41612;51.994;5.880;2024-02-26T03:25:33;7.97;;;4.35;;
55710;SDS011;41612;51.994;5.880;2024-02-26T03:27:59;6.53;;;5.00;;
55710;SDS011;41612;51.994;5.880;2024-02-26T03:30:27;7.38;;;5.47;;
55710;SDS011;41612;51.994;5.880;2024-02-26T03:32:53;6.25;;;4.53;;
55710;SDS011;41612;51.994;5.880;2024-02-26T03:35:19;6.30;;;4.55;;
55710;SDS011;41612;51.994;5.880;2024-02-26T03:37:47;8.05;;;6.47;;
55710;SDS011;41612;51.994;5.880;2024-02-26T03:40:16;7.45;;;5.45;;
55710;SDS011;41612;51.994;5.880;2024-02-26T03:42:47;7.00;;;5.30;;
55710;SDS011;41612;51.994;5.880;2024-02-26T03:45:22;6.97;;;4.72;;
55710;SDS011;41612;51.994;5.880;2024-02-26T03:47:51;6.82;;;5.30;;
55710;SDS011;41612;51.994;5.880;2024-02-26T03:50:17;5.75;;;4.57;;
55710;SDS011;41612;51.994;5.880;2024-02-26T03:52:46;6.82;;;4.63;;
55710;SDS011;41612;51.994;5.880;2024-02-26T03:55:15;7.57;;;5.03;;
55710;SDS011;41612;51.994;5.880;2024-02-26T03:57:46;6.65;;;5.13;;
55710;SDS011;41612;51.994;5.880;2024-02-26T04:00:26;8.52;;;5.28;;
55710;SDS011;41612;51.994;5.880;2024-02-26T04:02:55;6.88;;;5.05;;
55710;SDS011;41612;51.994;5.880;2024-02-26T04:05:26;7.75;;;5.53;;
55710;SDS011;41612;51.994;5.880;2024-02-26T04:07:57;7.18;;;5.57;;
55710;SDS011;41612;51.994;5.880;2024-02-26T04:10:23;9.93;;;6.07;;
55710;SDS011;41612;51.994;5.880;2024-02-26T04:12:56;7.20;;;5.47;;
55710;SDS011;41612;51.994;5.880;2024-02-26T04:15:22;7.43;;;5.50;;
55710;SDS011;41612;51.994;5.880;2024-02-26T04:17:50;7.50;;;5.85;;
55710;SDS011;41612;51.994;5.880;2024-02-26T04:20:19;8.65;;;5.90;;
55710;SDS011;41612;51.994;5.880;2024-02-26T04:22:50;10.65;;;6.85;;
55710;SDS011;41612;51.994;5.880;2024-02-26T04:25:16;8.20;;;6.47;;
55710;SDS011;41612;51.994;5.880;2024-02-26T04:27:42;12.32;;;7.80;;
55710;SDS011;41612;51.994;5.880;2024-02-26T04:30:09;8.52;;;6.43;;
55710;SDS011;41612;51.994;5.880;2024-02-26T04:32:35;8.73;;;6.65;;
55710;SDS011;41612;51.994;5.880;2024-02-26T04:35:02;10.50;;;7.10;;
55710;SDS011;41612;51.994;5.880;2024-02-26T04:37:28;9.77;;;7.00;;
55710;SDS011;41612;51.994;5.880;2024-02-26T04:39:59;11.15;;;7.55;;
55710;SDS011;41612;51.994;5.880;2024-02-26T04:42:26;13.00;;;7.97;;
55710;SDS011;41612;51.994;5.880;2024-02-26T04:44:55;9.63;;;7.20;;
55710;SDS011;41612;51.994;5.880;2024-02-26T04:47:27;9.32;;;7.30;;
55710;SDS011;41612;51.994;5.880;2024-02-26T04:50:00;9.82;;;7.55;;
55710;SDS011;41612;51.994;5.880;2024-02-26T04:52:31;14.30;;;7.88;;
55710;SDS011;41612;51.994;5.880;2024-02-26T04:54:57;10.93;;;7.53;;
55710;SDS011;41612;51.994;5.880;2024-02-26T04:57:27;8.93;;;6.82;;
55710;SDS011;41612;51.994;5.880;2024-02-26T04:59:53;10.38;;;7.53;;
55710;SDS011;41612;51.994;5.880;2024-02-26T05:02:19;10.52;;;7.63;;
55710;SDS011;41612;51.994;5.880;2024-02-26T05:04:44;10.57;;;8.02;;
55710;SDS011;41612;51.994;5.880;2024-02-26T05:07:10;11.70;;;8.30;;
55710;SDS011;41612;51.994;5.880;2024-02-26T05:09:37;12.32;;;8.15;;
55710;SDS011;41612;51.994;5.880;2024-02-26T05:12:03;12.15;;;8.63;;
55710;SDS011;41612;51.994;5.880;2024-02-26T05:14:29;11.95;;;8.70;;
55710;SDS011;41612;51.994;5.880;2024-02-26T05:17:04;11.90;;;8.45;;
55710;SDS011;41612;51.994;5.880;2024-02-26T05:19:35;11.82;;;8.52;;
55710;SDS011;41612;51.994;5.880;2024-02-26T05:22:00;10.70;;;8.48;;
55710;SDS011;41612;51.994;5.880;2024-02-26T05:24:26;12.75;;;9.10;;
55710;SDS011;41612;51.994;5.880;2024-02-26T05:26:53;12.63;;;9.05;;
55710;SDS011;41612;51.994;5.880;2024-02-26T05:29:22;10.90;;;8.30;;
55710;SDS011;41612;51.994;5.880;2024-02-26T05:31:50;10.95;;;8.35;;
55710;SDS011;41612;51.994;5.880;2024-02-26T05:34:22;12.18;;;8.70;;
55710;SDS011;41612;51.994;5.880;2024-02-26T05:36:48;10.95;;;8.32;;
55710;SDS011;41612;51.994;5.880;2024-02-26T05:39:15;12.02;;;8.82;;
55710;SDS011;41612;51.994;5.880;2024-02-26T05:41:47;11.07;;;8.10;;
55710;SDS011;41612;51.994;5.880;2024-02-26T05:44:17;13.98;;;8.95;;
55710;SDS011;41612;51.994;5.880;2024-02-26T05:46:50;11.52;;;8.30;;
55710;SDS011;41612;51.994;5.880;2024-02-26T05:49:22;10.50;;;8.30;;
55710;SDS011;41612;51.994;5.880;2024-02-26T05:51:50;11.63;;;8.45;;
55710;SDS011;41612;51.994;5.880;2024-02-26T05:54:26;11.65;;;8.20;;
55710;SDS011;41612;51.994;5.880;2024-02-26T05:56:54;12.77;;;8.40;;
55710;SDS011;41612;51.994;5.880;2024-02-26T05:59:20;10.32;;;7.93;;
55710;SDS011;41612;51.994;5.880;2024-02-26T06:01:51;11.30;;;8.20;;
55710;SDS011;41612;51.994;5.880;2024-02-26T06:04:17;12.25;;;8.65;;
55710;SDS011;41612;51.994;5.880;2024-02-26T06:06:46;12.15;;;8.48;;
55710;SDS011;41612;51.994;5.880;2024-02-26T06:09:12;11.73;;;8.85;;
55710;SDS011;41612;51.994;5.880;2024-02-26T06:11:40;11.35;;;8.43;;
55710;SDS011;41612;51.994;5.880;2024-02-26T06:14:09;12.30;;;8.60;;
55710;SDS011;41612;51.994;5.880;2024-02-26T06:16:35;10.65;;;8.43;;
55710;SDS011;41612;51.994;5.880;2024-02-26T06:19:01;11.93;;;8.90;;
55710;SDS011;41612;51.994;5.880;2024-02-26T06:21:29;12.88;;;8.45;;
55710;SDS011;41612;51.994;5.880;2024-02-26T06:23:57;11.35;;;8.73;;
55710;SDS011;41612;51.994;5.880;2024-02-26T06:26:24;13.35;;;8.88;;
55710;SDS011;41612;51.994;5.880;2024-02-26T06:28:54;12.25;;;8.98;;
55710;SDS011;41612;51.994;5.880;2024-02-26T06:31:22;12.55;;;8.93;;
55710;SDS011;41612;51.994;5.880;2024-02-26T06:33:49;13.25;;;8.82;;
55710;SDS011;41612;51.994;5.880;2024-02-26T06:36:20;11.32;;;8.65;;
55710;SDS011;41612;51.994;5.880;2024-02-26T06:38:46;10.65;;;8.00;;
55710;SDS011;41612;51.994;5.880;2024-02-26T06:41:12;11.35;;;8.27;;
55710;SDS011;41612;51.994;5.880;2024-02-26T06:43:38;11.45;;;8.73;;
55710;SDS011;41612;51.994;5.880;2024-02-26T06:46:05;13.38;;;9.52;;
55710;SDS011;41612;51.994;5.880;2024-02-26T06:48:33;11.23;;;8.18;;
55710;SDS011;41612;51.994;5.880;2024-02-26T06:51:02;11.23;;;8.27;;
55710;SDS011;41612;51.994;5.880;2024-02-26T06:53:31;12.93;;;9.35;;
55710;SDS011;41612;51.994;5.880;2024-02-26T06:55:57;12.70;;;9.10;;
55710;SDS011;41612;51.994;5.880;2024-02-26T06:58:23;12.15;;;9.38;;
55710;SDS011;41612;51.994;5.880;2024-02-26T07:00:49;11.90;;;9.10;;
55710;SDS011;41612;51.994;5.880;2024-02-26T07:03:15;11.63;;;8.85;;
55710;SDS011;41612;51.994;5.880;2024-02-26T07:05:41;12.85;;;8.13;;
55710;SDS011;41612;51.994;5.880;2024-02-26T07:08:09;11.45;;;8.02;;
55710;SDS011;41612;51.994;5.880;2024-02-26T07:10:35;12.35;;;9.10;;
55710;SDS011;41612;51.994;5.880;2024-02-26T07:13:01;11.63;;;9.05;;
55710;SDS011;41612;51.994;5.880;2024-02-26T07:15:27;12.93;;;9.55;;
55710;SDS011;41612;51.994;5.880;2024-02-26T07:17:53;11.80;;;8.88;;
55710;SDS011;41612;51.994;5.880;2024-02-26T07:20:20;12.25;;;9.23;;
55710;SDS011;41612;51.994;5.880;2024-02-26T07:22:49;11.68;;;8.50;;
55710;SDS011;41612;51.994;5.880;2024-02-26T07:25:15;11.68;;;8.38;;
55710;SDS011;41612;51.994;5.880;2024-02-26T07:27:41;13.77;;;9.40;;
55710;SDS011;41612;51.994;5.880;2024-02-26T07:30:07;14.98;;;10.25;;
55710;SDS011;41612;51.994;5.880;2024-02-26T07:32:34;12.57;;;9.45;;
55710;SDS011;41612;51.994;5.880;2024-02-26T07:35:00;13.15;;;10.43;;
55710;SDS011;41612;51.994;5.880;2024-02-26T07:37:26;13.27;;;9.85;;
55710;SDS011;41612;51.994;5.880;2024-02-26T07:39:52;15.73;;;9.98;;
55710;SDS011;41612;51.994;5.880;2024-02-26T07:42:19;12.70;;;9.40;;
55710;SDS011;41612;51.994;5.880;2024-02-26T07:44:45;13.63;;;9.50;;
55710;SDS011;41612;51.994;5.880;2024-02-26T07:47:10;13.82;;;10.65;;
55710;SDS011;41612;51.994;5.880;2024-02-26T07:49:36;15.13;;;11.00;;
55710;SDS011;41612;51.994;5.880;2024-02-26T07:52:02;17.45;;;10.60;;
55710;SDS011;41612;51.994;5.880;2024-02-26T07:54:28;16.65;;;11.43;;
55710;SDS011;41612;51.994;5.880;2024-02-26T07:56:53;14.85;;;10.60;;
55710;SDS011;41612;51.994;5.880;2024-02-26T07:59:19;17.08;;;10.35;;
55710;SDS011;41612;51.994;5.880;2024-02-26T08:01:49;16.25;;;11.02;;
55710;SDS011;41612;51.994;5.880;2024-02-26T08:04:17;15.48;;;10.60;;
55710;SDS011;41612;51.994;5.880;2024-02-26T08:06:43;16.70;;;12.25;;
55710;SDS011;41612;51.994;5.880;2024-02-26T08:09:08;15.40;;;10.80;;
55710;SDS011;41612;51.994;5.880;2024-02-26T08:11:34;17.88;;;12.32;;
55710;SDS011;41612;51.994;5.880;2024-02-26T08:14:00;15.50;;;10.98;;
55710;SDS011;41612;51.994;5.880;2024-02-26T08:16:26;17.17;;;11.93;;
55710;SDS011;41612;51.994;5.880;2024-02-26T08:18:52;16.98;;;12.05;;
55710;SDS011;41612;51.994;5.880;2024-02-26T08:21:18;21.35;;;13.98;;
55710;SDS011;41612;51.994;5.880;2024-02-26T08:23:44;17.30;;;11.65;;
55710;SDS011;41612;51.994;5.880;2024-02-26T08:26:09;19.65;;;12.45;;
55710;SDS011;41612;51.994;5.880;2024-02-26T08:28:36;18.65;;;13.32;;
55710;SDS011;41612;51.994;5.880;2024-02-26T08:31:02;18.15;;;12.48;;
55710;SDS011;41612;51.994;5.880;2024-02-26T08:33:28;18.83;;;11.82;;
55710;SDS011;41612;51.994;5.880;2024-02-26T08:35:55;19.13;;;12.85;;
55710;SDS011;41612;51.994;5.880;2024-02-26T08:38:21;16.98;;;12.07;;
55710;SDS011;41612;51.994;5.880;2024-02-26T08:40:48;16.08;;;11.30;;
55710;SDS011;41612;51.994;5.880;2024-02-26T08:43:14;17.35;;;11.93;;
55710;SDS011;41612;51.994;5.880;2024-02-26T08:45:40;19.13;;;12.68;;
55710;SDS011;41612;51.994;5.880;2024-02-26T08:48:05;17.52;;;11.60;;
55710;SDS011;41612;51.994;5.880;2024-02-26T08:50:32;20.33;;;13.27;;
55710;SDS011;41612;51.994;5.880;2024-02-26T08:53:01;18.83;;;13.10;;
55710;SDS011;41612;51.994;5.880;2024-02-26T08:55:28;22.30;;;13.35;;
55710;SDS011;41612;51.994;5.880;2024-02-26T08:57:54;17.70;;;12.02;;
55710;SDS011;41612;51.994;5.880;2024-02-26T09:00:20;21.27;;;13.57;;
55710;SDS011;41612;51.994;5.880;2024-02-26T09:02:49;21.23;;;13.95;;
55710;SDS011;41612;51.994;5.880;2024-02-26T09:05:15;22.38;;;13.48;;
55710;SDS011;41612;51.994;5.880;2024-02-26T09:07:41;20.77;;;13.30;;
55710;SDS011;41612;51.994;5.880;2024-02-26T09:10:06;22.33;;;13.70;;
55710;SDS011;41612;51.994;5.880;2024-02-26T09:12:36;22.85;;;13.77;;
55710;SDS011;41612;51.994;5.880;2024-02-26T09:15:02;24.15;;;13.65;;
55710;SDS011;41612;51.994;5.880;2024-02-26T09:17:28;20.45;;;14.30;;
55710;SDS011;41612;51.994;5.880;2024-02-26T09:19:54;22.85;;;14.65;;
55710;SDS011;41612;51.994;5.880;2024-02-26T09:22:20;22.13;;;14.27;;
55710;SDS011;41612;51.994;5.880;2024-02-26T09:24:45;22.92;;;15.25;;
55710;SDS011;41612;51.994;5.880;2024-02-26T09:27:11;18.50;;;12.45;;
55710;SDS011;41612;51.994;5.880;2024-02-26T09:29:37;21.85;;;14.45;;
55710;SDS011;41612;51.994;5.880;2024-02-26T09:32:03;22.80;;;13.63;;
55710;SDS011;41612;51.994;5.880;2024-02-26T09:34:29;26.42;;;14.52;;
55710;SDS011;41612;51.994;5.880;2024-02-26T09:36:54;21.83;;;13.20;;
55710;SDS011;41612;51.994;5.880;2024-02-26T09:39:23;22.45;;;13.95;;
55710;SDS011;41612;51.994;5.880;2024-02-26T09:41:49;23.60;;;14.48;;
55710;SDS011;41612;51.994;5.880;2024-02-26T09:44:15;23.20;;;14.63;;
55710;SDS011;41612;51.994;5.880;2024-02-26T09:46:48;20.55;;;13.05;;
55710;SDS011;41612;51.994;5.880;2024-02-26T09:49:18;19.30;;;12.77;;
55710;SDS011;41612;51.994;5.880;2024-02-26T09:51:45;20.08;;;12.60;;
55710;SDS011;41612;51.994;5.880;2024-02-26T09:54:12;22.35;;;14.15;;
55710;SDS011;41612;51.994;5.880;2024-02-26T09:56:40;23.70;;;13.98;;
55710;SDS011;41612;51.994;5.880;2024-02-26T09:59:08;21.58;;;13.80;;
55710;SDS011;41612;51.994;5.880;2024-02-26T10:01:41;20.35;;;13.52;;
55710;SDS011;41612;51.994;5.880;2024-02-26T10:04:09;20.58;;;12.93;;
55710;SDS011;41612;51.994;5.880;2024-02-26T10:06:36;20.15;;;13.30;;
55710;SDS011;41612;51.994;5.880;2024-02-26T10:09:06;22.73;;;13.68;;
55710;SDS011;41612;51.994;5.880;2024-02-26T10:11:34;20.92;;;13.10;;
55710;SDS011;41612;51.994;5.880;2024-02-26T10:14:03;20.92;;;12.48;;
55710;SDS011;41612;51.994;5.880;2024-02-26T10:16:29;19.67;;;12.35;;
55710;SDS011;41612;51.994;5.880;2024-02-26T10:18:55;19.40;;;13.93;;
55710;SDS011;41612;51.994;5.880;2024-02-26T10:21:21;20.88;;;11.85;;
55710;SDS011;41612;51.994;5.880;2024-02-26T10:23:48;17.70;;;12.02;;
55710;SDS011;41612;51.994;5.880;2024-02-26T10:26:16;19.88;;;11.68;;
55710;SDS011;41612;51.994;5.880;2024-02-26T10:28:43;18.75;;;11.77;;
55710;SDS011;41612;51.994;5.880;2024-02-26T10:31:09;18.25;;;11.75;;
55710;SDS011;41612;51.994;5.880;2024-02-26T10:33:36;19.77;;;12.88;;
55710;SDS011;41612;51.994;5.880;2024-02-26T10:36:05;21.17;;;13.07;;
55710;SDS011;41612;51.994;5.880;2024-02-26T10:38:35;17.70;;;11.60;;
55710;SDS011;41612;51.994;5.880;2024-02-26T10:41:05;18.85;;;12.15;;
55710;SDS011;41612;51.994;5.880;2024-02-26T10:43:35;20.05;;;12.10;;
55710;SDS011;41612;51.994;5.880;2024-02-26T10:46:01;19.60;;;12.68;;
55710;SDS011;41612;51.994;5.880;2024-02-26T10:48:26;19.02;;;13.35;;
55710;SDS011;41612;51.994;5.880;2024-02-26T10:50:55;18.38;;;11.50;;
55710;SDS011;41612;51.994;5.880;2024-02-26T10:53:22;18.50;;;11.60;;
55710;SDS011;41612;51.994;5.880;2024-02-26T10:55:54;16.58;;;11.23;;
55710;SDS011;41612;51.994;5.880;2024-02-26T10:58:28;19.23;;;12.18;;
55710;SDS011;41612;51.994;5.880;2024-02-26T11:00:54;18.77;;;11.55;;
55710;SDS011;41612;51.994;5.880;2024-02-26T11:03:25;18.33;;;12.13;;
55710;SDS011;41612;51.994;5.880;2024-02-26T11:05:51;17.55;;;11.50;;
55710;SDS011;41612;51.994;5.880;2024-02-26T11:08:21;16.70;;;11.32;;
55710;SDS011;41612;51.994;5.880;2024-02-26T11:10:50;20.08;;;12.35;;
55710;SDS011;41612;51.994;5.880;2024-02-26T11:13:19;17.52;;;11.30;;
55710;SDS011;41612;51.994;5.880;2024-02-26T11:15:46;16.95;;;11.20;;
55710;SDS011;41612;51.994;5.880;2024-02-26T11:18:19;18.25;;;12.00;;
55710;SDS011;41612;51.994;5.880;2024-02-26T11:20:48;16.80;;;11.20;;
55710;SDS011;41612;51.994;5.880;2024-02-26T11:23:15;17.50;;;11.68;;
55710;SDS011;41612;51.994;5.880;2024-02-26T11:25:41;17.98;;;11.38;;
55710;SDS011;41612;51.994;5.880;2024-02-26T11:28:12;17.65;;;10.80;;
55710;SDS011;41612;51.994;5.880;2024-02-26T11:30:42;17.10;;;11.63;;
55710;SDS011;41612;51.994;5.880;2024-02-26T11:33:14;18.70;;;12.18;;
55710;SDS011;41612;51.994;5.880;2024-02-26T11:35:40;16.83;;;11.52;;
55710;SDS011;41612;51.994;5.880;2024-02-26T11:38:07;17.15;;;11.43;;
55710;SDS011;41612;51.994;5.880;2024-02-26T11:40:33;16.63;;;10.25;;
55710;SDS011;41612;51.994;5.880;2024-02-26T11:43:06;15.68;;;10.18;;
55710;SDS011;41612;51.994;5.880;2024-02-26T11:48:04;17.45;;;11.63;;
55710;SDS011;41612;51.994;5.880;2024-02-26T11:50:45;16.25;;;9.88;;
55710;SDS011;41612;51.994;5.880;2024-02-26T11:53:23;16.25;;;10.25;;
55710;SDS011;41612;51.994;5.880;2024-02-26T12:02:06;16.38;;;11.32;;
55710;SDS011;41612;51.994;5.880;2024-02-26T12:04:33;16.63;;;10.95;;
55710;SDS011;41612;51.994;5.880;2024-02-26T12:07:02;14.93;;;10.18;;
55710;SDS011;41612;51.994;5.880;2024-02-26T12:14:35;15.50;;;10.13;;
55710;SDS011;41612;51.994;5.880;2024-02-26T12:17:06;15.57;;;10.65;;
55710;SDS011;41612;51.994;5.880;2024-02-26T12:19:44;14.10;;;9.45;;
55710;SDS011;41612;51.994;5.880;2024-02-26T12:22:12;14.40;;;9.02;;
55710;SDS011;41612;51.994;5.880;2024-02-26T12:24:39;15.32;;;9.85;;
55710;SDS011;41612;51.994;5.880;2024-02-26T12:27:05;16.67;;;10.43;;
55710;SDS011;41612;51.994;5.880;2024-02-26T12:29:31;13.95;;;9.70;;
55710;SDS011;41612;51.994;5.880;2024-02-26T12:31:57;16.00;;;9.43;;
55710;SDS011;41612;51.994;5.880;2024-02-26T12:34:23;14.80;;;9.70;;
55710;SDS011;41612;51.994;5.880;2024-02-26T12:36:51;16.00;;;10.02;;
55710;SDS011;41612;51.994;5.880;2024-02-26T12:39:19;14.18;;;9.13;;
55710;SDS011;41612;51.994;5.880;2024-02-26T12:41:48;14.52;;;9.65;;
55710;SDS011;41612;51.994;5.880;2024-02-26T12:44:16;15.07;;;9.70;;
55710;SDS011;41612;51.994;5.880;2024-02-26T12:46:43;13.27;;;9.02;;
55710;SDS011;41612;51.994;5.880;2024-02-26T12:49:14;13.77;;;9.25;;
55710;SDS011;41612;51.994;5.880;2024-02-26T12:51:42;15.40;;;10.57;;
55710;SDS011;41612;51.994;5.880;2024-02-26T12:54:10;13.50;;;9.10;;
55710;SDS011;41612;51.994;5.880;2024-02-26T12:56:39;13.18;;;8.68;;
55710;SDS011;41612;51.994;5.880;2024-02-26T12:59:05;14.30;;;9.32;;
55710;SDS011;41612;51.994;5.880;2024-02-26T13:01:32;14.07;;;9.63;;
55710;SDS011;41612;51.994;5.880;2024-02-26T13:04:01;11.77;;;8.48;;
55710;SDS011;41612;51.994;5.880;2024-02-26T13:06:32;12.27;;;8.57;;
55710;SDS011;41612;51.994;5.880;2024-02-26T13:08:59;12.43;;;7.97;;
55710;SDS011;41612;51.994;5.880;2024-02-26T13:11:28;14.15;;;8.65;;
55710;SDS011;41612;51.994;5.880;2024-02-26T13:13:56;11.88;;;8.50;;
55710;SDS011;41612;51.994;5.880;2024-02-26T13:16:24;12.77;;;8.20;;
55710;SDS011;41612;51.994;5.880;2024-02-26T13:18:53;12.20;;;8.27;;
55710;SDS011;41612;51.994;5.880;2024-02-26T13:21:19;11.88;;;7.63;;
55710;SDS011;41612;51.994;5.880;2024-02-26T13:23:48;9.88;;;7.10;;
55710;SDS011;41612;51.994;5.880;2024-02-26T13:26:15;11.90;;;8.05;;
55710;SDS011;41612;51.994;5.880;2024-02-26T13:28:41;12.00;;;8.30;;
55710;SDS011;41612;51.994;5.880;2024-02-26T13:31:15;10.57;;;7.68;;
55710;SDS011;41612;51.994;5.880;2024-02-26T13:33:45;10.73;;;7.20;;
55710;SDS011;41612;51.994;5.880;2024-02-26T13:36:12;11.95;;;7.32;;
55710;SDS011;41612;51.994;5.880;2024-02-26T13:38:50;10.18;;;7.25;;
55710;SDS011;41612;51.994;5.880;2024-02-26T13:41:18;11.57;;;7.65;;
55710;SDS011;41612;51.994;5.880;2024-02-26T13:43:47;11.95;;;7.95;;
55710;SDS011;41612;51.994;5.880;2024-02-26T13:46:13;11.18;;;7.45;;
55710;SDS011;41612;51.994;5.880;2024-02-26T13:48:42;15.73;;;7.78;;
55710;SDS011;41612;51.994;5.880;2024-02-26T13:51:08;13.23;;;8.68;;
55710;SDS011;41612;51.994;5.880;2024-02-26T13:53:34;13.20;;;8.82;;
55710;SDS011;41612;51.994;5.880;2024-02-26T13:56:00;11.30;;;8.13;;
55710;SDS011;41612;51.994;5.880;2024-02-26T13:58:27;11.63;;;7.63;;
55710;SDS011;41612;51.994;5.880;2024-02-26T14:00:55;11.07;;;7.65;;
55710;SDS011;41612;51.994;5.880;2024-02-26T14:03:21;9.88;;;7.28;;
55710;SDS011;41612;51.994;5.880;2024-02-26T14:05:49;11.13;;;7.75;;
55710;SDS011;41612;51.994;5.880;2024-02-26T14:08:15;11.88;;;8.55;;
55710;SDS011;41612;51.994;5.880;2024-02-26T14:10:44;10.23;;;7.60;;
55710;SDS011;41612;51.994;5.880;2024-02-26T14:13:15;12.02;;;8.07;;
55710;SDS011;41612;51.994;5.880;2024-02-26T14:15:43;12.13;;;7.97;;
55710;SDS011;41612;51.994;5.880;2024-02-26T14:18:10;10.50;;;7.75;;
55710;SDS011;41612;51.994;5.880;2024-02-26T14:20:38;10.52;;;7.57;;
55710;SDS011;41612;51.994;5.880;2024-02-26T14:23:05;11.25;;;8.05;;
55710;SDS011;41612;51.994;5.880;2024-02-26T14:25:34;10.20;;;7.82;;
55710;SDS011;41612;51.994;5.880;2024-02-26T14:30:38;10.57;;;7.55;;
55710;SDS011;41612;51.994;5.880;2024-02-26T14:33:06;11.10;;;7.93;;
55710;SDS011;41612;51.994;5.880;2024-02-26T14:35:31;9.23;;;6.78;;
55710;SDS011;41612;51.994;5.880;2024-02-26T14:38:00;11.50;;;8.35;;
55710;SDS011;41612;51.994;5.880;2024-02-26T14:40:26;12.07;;;7.78;;
55710;SDS011;41612;51.994;5.880;2024-02-26T14:42:52;11.45;;;7.88;;
55710;SDS011;41612;51.994;5.880;2024-02-26T14:45:22;11.52;;;8.25;;
55710;SDS011;41612;51.994;5.880;2024-02-26T14:47:47;10.63;;;7.18;;
55710;SDS011;41612;51.994;5.880;2024-02-26T14:50:18;10.27;;;7.38;;
55710;SDS011;41612;51.994;5.880;2024-02-26T14:52:46;11.38;;;8.02;;
55710;SDS011;41612;51.994;5.880;2024-02-26T14:55:15;11.40;;;8.18;;